Terminal Aerodrome Forecast
Issued by NWS Medford, OR

Current Version | Previous Version | Text Only | Print | Product List | Glossary On
Versions: 1 2 3 4 5 6 7 8 9 10 11 12 13 14 15 16 17 18 19
615
FTUS46 KMFR 231422 AAB
TAFMFR
TAF AMD
KMFR 231422Z 2314/2412 32005KT 2SM FU BKN040
     FM232300 32012KT 3SM HZ SCT150
     FM240400 VRB03KT 4SM HZ SKC=

USA.gov is the U.S. government's official web portal to all federal, state and local government web resources and services.